sensor_id;sensor_type;location;lat;lon;timestamp;pressure;altitude;pressure_sealevel;temperature;humidity
16525;BME280;8375;33.594;-117.718;2023-03-23T00:01:17;100590.38;;;13.64;83.22
16525;BME280;8375;33.594;-117.718;2023-03-23T00:03:49;100584.78;;;13.15;82.77
16525;BME280;8375;33.594;-117.718;2023-03-23T00:06:18;100586.25;;;13.08;86.41
16525;BME280;8375;33.594;-117.718;2023-03-23T00:08:48;100582.13;;;12.94;84.09
16525;BME280;8375;33.594;-117.718;2023-03-23T00:11:24;100581.81;;;12.87;85.59
16525;BME280;8375;33.594;-117.718;2023-03-23T00:13:56;100589.25;;;12.91;89.09
16525;BME280;8375;33.594;-117.718;2023-03-23T00:16:29;100584.63;;;12.95;90.01
16525;BME280;8375;33.594;-117.718;2023-03-23T00:19:01;100591.78;;;12.82;87.49
16525;BME280;8375;33.594;-117.718;2023-03-23T00:21:33;100592.47;;;12.84;90.24
16525;BME280;8375;33.594;-117.718;2023-03-23T00:24:05;100592.56;;;12.94;88.87
16525;BME280;8375;33.594;-117.718;2023-03-23T00:26:36;100599.16;;;12.98;88.88
16525;BME280;8375;33.594;-117.718;2023-03-23T00:29:07;100597.94;;;12.81;84.57
16525;BME280;8375;33.594;-117.718;2023-03-23T00:31:36;100597.72;;;12.72;87.12
16525;BME280;8375;33.594;-117.718;2023-03-23T00:34:07;100594.91;;;12.53;87.71
16525;BME280;8375;33.594;-117.718;2023-03-23T00:36:38;100597.06;;;12.47;87.07
16525;BME280;8375;33.594;-117.718;2023-03-23T00:39:09;100594.59;;;12.23;86.14
16525;BME280;8375;33.594;-117.718;2023-03-23T00:41:38;100589.97;;;12.27;88.76
16525;BME280;8375;33.594;-117.718;2023-03-23T00:44:06;100592.34;;;12.18;85.95
16525;BME280;8375;33.594;-117.718;2023-03-23T00:46:35;100591.75;;;12.15;87.88
16525;BME280;8375;33.594;-117.718;2023-03-23T00:49:12;100599.91;;;12.33;89.33
16525;BME280;8375;33.594;-117.718;2023-03-23T00:51:42;100591.72;;;12.38;86.09
16525;BME280;8375;33.594;-117.718;2023-03-23T00:54:11;100599.53;;;12.38;87.41
16525;BME280;8375;33.594;-117.718;2023-03-23T00:56:40;100603.78;;;12.50;88.75
16525;BME280;8375;33.594;-117.718;2023-03-23T00:59:09;100600.34;;;12.61;87.93
16525;BME280;8375;33.594;-117.718;2023-03-23T01:01:38;100599.47;;;12.72;88.80
16525;BME280;8375;33.594;-117.718;2023-03-23T01:04:07;100599.84;;;12.79;87.61
16525;BME280;8375;33.594;-117.718;2023-03-23T01:06:41;100597.00;;;12.82;85.44
16525;BME280;8375;33.594;-117.718;2023-03-23T01:09:12;100597.44;;;12.87;86.24
16525;BME280;8375;33.594;-117.718;2023-03-23T01:11:43;100602.72;;;12.97;87.57
16525;BME280;8375;33.594;-117.718;2023-03-23T01:14:13;100596.69;;;12.96;85.83
16525;BME280;8375;33.594;-117.718;2023-03-23T01:16:45;100601.34;;;12.81;85.59
16525;BME280;8375;33.594;-117.718;2023-03-23T01:19:14;100602.44;;;12.79;85.73
16525;BME280;8375;33.594;-117.718;2023-03-23T01:21:46;100607.66;;;12.79;86.55
16525;BME280;8375;33.594;-117.718;2023-03-23T01:24:15;100598.88;;;12.80;87.54
16525;BME280;8375;33.594;-117.718;2023-03-23T01:26:44;100616.19;;;12.69;85.75
16525;BME280;8375;33.594;-117.718;2023-03-23T01:29:12;100604.72;;;12.60;85.81
16525;BME280;8375;33.594;-117.718;2023-03-23T01:31:41;100608.19;;;12.50;87.19
16525;BME280;8375;33.594;-117.718;2023-03-23T01:34:10;100603.09;;;12.37;89.63
16525;BME280;8375;33.594;-117.718;2023-03-23T01:36:39;100601.34;;;12.37;91.15
16525;BME280;8375;33.594;-117.718;2023-03-23T01:39:10;100612.09;;;12.44;92.33
16525;BME280;8375;33.594;-117.718;2023-03-23T01:41:39;100613.41;;;12.27;89.57
16525;BME280;8375;33.594;-117.718;2023-03-23T01:47:15;100611.50;;;12.40;92.35
16525;BME280;8375;33.594;-117.718;2023-03-23T01:49:46;100620.28;;;12.28;90.43
16525;BME280;8375;33.594;-117.718;2023-03-23T01:52:20;100617.91;;;12.13;90.53
16525;BME280;8375;33.594;-117.718;2023-03-23T01:54:55;100616.72;;;12.06;93.59
16525;BME280;8375;33.594;-117.718;2023-03-23T01:57:26;100614.19;;;11.93;92.56
16525;BME280;8375;33.594;-117.718;2023-03-23T01:59:58;100614.16;;;11.82;94.02
16525;BME280;8375;33.594;-117.718;2023-03-23T02:02:34;100612.16;;;11.74;93.70
16525;BME280;8375;33.594;-117.718;2023-03-23T02:05:09;100609.19;;;11.67;93.93
16525;BME280;8375;33.594;-117.718;2023-03-23T02:07:39;100609.06;;;11.57;94.98
16525;BME280;8375;33.594;-117.718;2023-03-23T02:10:10;100615.16;;;11.45;95.38
16525;BME280;8375;33.594;-117.718;2023-03-23T02:12:39;100614.22;;;11.46;97.00
16525;BME280;8375;33.594;-117.718;2023-03-23T02:15:09;100614.22;;;11.46;96.98
16525;BME280;8375;33.594;-117.718;2023-03-23T02:17:42;100617.63;;;11.47;97.15
16525;BME280;8375;33.594;-117.718;2023-03-23T02:20:34;100624.22;;;11.39;98.45
16525;BME280;8375;33.594;-117.718;2023-03-23T02:23:29;100620.19;;;11.35;99.51
16525;BME280;8375;33.594;-117.718;2023-03-23T02:26:16;100611.69;;;11.33;100.00
16525;BME280;8375;33.594;-117.718;2023-03-23T02:29:11;100609.31;;;11.30;100.00
16525;BME280;8375;33.594;-117.718;2023-03-23T02:31:50;100616.28;;;11.29;100.00
16525;BME280;8375;33.594;-117.718;2023-03-23T02:34:28;100626.91;;;11.26;100.00
16525;BME280;8375;33.594;-117.718;2023-03-23T02:37:01;100628.34;;;11.30;100.00
16525;BME280;8375;33.594;-117.718;2023-03-23T02:39:34;100623.75;;;11.34;100.00
16525;BME280;8375;33.594;-117.718;2023-03-23T02:42:07;100634.13;;;11.34;100.00
16525;BME280;8375;33.594;-117.718;2023-03-23T02:44:38;100638.34;;;11.24;100.00
16525;BME280;8375;33.594;-117.718;2023-03-23T02:47:12;100639.78;;;11.28;100.00
16525;BME280;8375;33.594;-117.718;2023-03-23T02:49:46;100636.88;;;11.33;100.00
16525;BME280;8375;33.594;-117.718;2023-03-23T02:52:19;100638.63;;;11.32;100.00
16525;BME280;8375;33.594;-117.718;2023-03-23T02:54:51;100643.22;;;11.28;100.00
16525;BME280;8375;33.594;-117.718;2023-03-23T02:57:23;100644.38;;;11.24;100.00
16525;BME280;8375;33.594;-117.718;2023-03-23T02:59:53;100645.16;;;11.13;100.00
16525;BME280;8375;33.594;-117.718;2023-03-23T03:02:24;100642.78;;;11.10;100.00
16525;BME280;8375;33.594;-117.718;2023-03-23T03:05:00;100649.03;;;11.08;100.00
16525;BME280;8375;33.594;-117.718;2023-03-23T03:07:44;100646.16;;;10.99;100.00
16525;BME280;8375;33.594;-117.718;2023-03-23T03:10:19;100645.53;;;10.96;100.00
16525;BME280;8375;33.594;-117.718;2023-03-23T03:12:56;100652.59;;;10.94;100.00
16525;BME280;8375;33.594;-117.718;2023-03-23T03:15:29;100657.22;;;10.90;100.00
16525;BME280;8375;33.594;-117.718;2023-03-23T03:18:06;100658.34;;;10.86;100.00
16525;BME280;8375;33.594;-117.718;2023-03-23T03:20:43;100663.06;;;10.81;100.00
16525;BME280;8375;33.594;-117.718;2023-03-23T03:23:15;100661.59;;;10.77;100.00
16525;BME280;8375;33.594;-117.718;2023-03-23T03:25:45;100667.44;;;10.67;100.00
16525;BME280;8375;33.594;-117.718;2023-03-23T03:28:17;100672.22;;;10.61;100.00
16525;BME280;8375;33.594;-117.718;2023-03-23T03:30:51;100675.66;;;10.61;100.00
16525;BME280;8375;33.594;-117.718;2023-03-23T03:33:21;100670.56;;;10.60;100.00
16525;BME280;8375;33.594;-117.718;2023-03-23T03:35:54;100682.09;;;10.55;100.00
16525;BME280;8375;33.594;-117.718;2023-03-23T03:38:23;100680.31;;;10.56;100.00
16525;BME280;8375;33.594;-117.718;2023-03-23T03:40:54;100681.97;;;10.57;100.00
16525;BME280;8375;33.594;-117.718;2023-03-23T03:43:23;100691.53;;;10.56;100.00
16525;BME280;8375;33.594;-117.718;2023-03-23T03:45:52;100687.16;;;10.57;100.00
16525;BME280;8375;33.594;-117.718;2023-03-23T03:48:21;100691.63;;;10.55;100.00
16525;BME280;8375;33.594;-117.718;2023-03-23T03:50:50;100689.97;;;10.54;100.00
16525;BME280;8375;33.594;-117.718;2023-03-23T03:53:24;100689.25;;;10.52;100.00
16525;BME280;8375;33.594;-117.718;2023-03-23T03:55:53;100697.97;;;10.51;100.00
16525;BME280;8375;33.594;-117.718;2023-03-23T03:58:26;100698.19;;;10.48;100.00
16525;BME280;8375;33.594;-117.718;2023-03-23T04:00:58;100703.44;;;10.33;100.00
16525;BME280;8375;33.594;-117.718;2023-03-23T04:03:27;100701.91;;;10.31;100.00
16525;BME280;8375;33.594;-117.718;2023-03-23T04:05:56;100709.56;;;10.32;100.00
16525;BME280;8375;33.594;-117.718;2023-03-23T04:08:27;100712.38;;;10.29;100.00
16525;BME280;8375;33.594;-117.718;2023-03-23T04:10:56;100719.88;;;10.34;100.00
16525;BME280;8375;33.594;-117.718;2023-03-23T04:13:25;100715.50;;;10.34;100.00
16525;BME280;8375;33.594;-117.718;2023-03-23T04:15:53;100715.50;;;10.34;100.00
16525;BME280;8375;33.594;-117.718;2023-03-23T04:18:23;100714.47;;;10.37;100.00
16525;BME280;8375;33.594;-117.718;2023-03-23T04:20:51;100716.22;;;10.36;100.00
16525;BME280;8375;33.594;-117.718;2023-03-23T04:23:21;100725.28;;;10.44;100.00
16525;BME280;8375;33.594;-117.718;2023-03-23T04:25:52;100728.81;;;10.42;100.00
16525;BME280;8375;33.594;-117.718;2023-03-23T04:28:24;100738.25;;;10.44;100.00
16525;BME280;8375;33.594;-117.718;2023-03-23T04:30:55;100735.88;;;10.40;100.00
16525;BME280;8375;33.594;-117.718;2023-03-23T04:33:24;100740.66;;;10.47;100.00
16525;BME280;8375;33.594;-117.718;2023-03-23T04:35:54;100740.34;;;10.51;100.00
16525;BME280;8375;33.594;-117.718;2023-03-23T04:38:24;100744.69;;;10.51;100.00
16525;BME280;8375;33.594;-117.718;2023-03-23T04:40:55;100750.09;;;10.48;100.00
16525;BME280;8375;33.594;-117.718;2023-03-23T04:43:27;100750.41;;;10.43;100.00
16525;BME280;8375;33.594;-117.718;2023-03-23T04:45:59;100749.34;;;10.33;100.00
16525;BME280;8375;33.594;-117.718;2023-03-23T04:48:30;100752.97;;;10.30;100.00
16525;BME280;8375;33.594;-117.718;2023-03-23T04:51:01;100756.69;;;10.26;100.00
16525;BME280;8375;33.594;-117.718;2023-03-23T04:53:31;100758.69;;;10.22;100.00
16525;BME280;8375;33.594;-117.718;2023-03-23T04:56:02;100756.38;;;10.18;100.00
16525;BME280;8375;33.594;-117.718;2023-03-23T04:58:30;100748.78;;;10.15;100.00
16525;BME280;8375;33.594;-117.718;2023-03-23T05:01:00;100755.66;;;10.16;100.00
16525;BME280;8375;33.594;-117.718;2023-03-23T05:03:29;100761.03;;;10.12;100.00
16525;BME280;8375;33.594;-117.718;2023-03-23T05:06:00;100766.88;;;10.16;100.00
16525;BME280;8375;33.594;-117.718;2023-03-23T05:08:29;100764.69;;;10.10;100.00
16525;BME280;8375;33.594;-117.718;2023-03-23T05:11:02;100774.94;;;10.11;100.00
16525;BME280;8375;33.594;-117.718;2023-03-23T05:13:30;100770.88;;;10.07;100.00
16525;BME280;8375;33.594;-117.718;2023-03-23T05:16:03;100769.53;;;10.02;100.00
16525;BME280;8375;33.594;-117.718;2023-03-23T05:18:32;100773.06;;;10.01;100.00
16525;BME280;8375;33.594;-117.718;2023-03-23T05:21:02;100775.75;;;9.99;100.00
16525;BME280;8375;33.594;-117.718;2023-03-23T05:23:30;100776.69;;;9.98;100.00
16525;BME280;8375;33.594;-117.718;2023-03-23T05:26:02;100785.19;;;10.00;100.00
16525;BME280;8375;33.594;-117.718;2023-03-23T05:28:30;100789.25;;;10.04;100.00
16525;BME280;8375;33.594;-117.718;2023-03-23T05:30:59;100783.63;;;9.97;100.00
16525;BME280;8375;33.594;-117.718;2023-03-23T05:33:28;100776.28;;;10.04;100.00
16525;BME280;8375;33.594;-117.718;2023-03-23T05:35:56;100789.66;;;9.98;100.00
16525;BME280;8375;33.594;-117.718;2023-03-23T05:38:25;100784.47;;;9.98;100.00
16525;BME280;8375;33.594;-117.718;2023-03-23T05:40:57;100788.72;;;9.99;100.00
16525;BME280;8375;33.594;-117.718;2023-03-23T05:43:28;100796.88;;;9.93;100.00
16525;BME280;8375;33.594;-117.718;2023-03-23T05:45:56;100802.19;;;9.91;100.00
16525;BME280;8375;33.594;-117.718;2023-03-23T05:48:25;100798.88;;;9.89;100.00
16525;BME280;8375;33.594;-117.718;2023-03-23T05:50:54;100804.88;;;9.90;100.00
16525;BME280;8375;33.594;-117.718;2023-03-23T05:53:23;100793.16;;;9.84;100.00
16525;BME280;8375;33.594;-117.718;2023-03-23T05:55:52;100794.34;;;9.78;100.00
16525;BME280;8375;33.594;-117.718;2023-03-23T05:58:22;100803.44;;;9.71;100.00
16525;BME280;8375;33.594;-117.718;2023-03-23T06:00:52;100808.41;;;9.61;100.00
16525;BME280;8375;33.594;-117.718;2023-03-23T06:03:21;100805.91;;;9.60;100.00
16525;BME280;8375;33.594;-117.718;2023-03-23T06:05:50;100804.53;;;9.54;100.00
16525;BME280;8375;33.594;-117.718;2023-03-23T06:08:19;100810.53;;;9.54;100.00
16525;BME280;8375;33.594;-117.718;2023-03-23T06:10:49;100806.59;;;9.49;100.00
16525;BME280;8375;33.594;-117.718;2023-03-23T06:13:18;100813.63;;;9.47;100.00
16525;BME280;8375;33.594;-117.718;2023-03-23T06:15:46;100811.97;;;9.46;100.00
16525;BME280;8375;33.594;-117.718;2023-03-23T06:18:17;100813.91;;;9.42;100.00
16525;BME280;8375;33.594;-117.718;2023-03-23T06:20:46;100820.00;;;9.41;100.00
16525;BME280;8375;33.594;-117.718;2023-03-23T06:23:15;100816.88;;;9.36;100.00
16525;BME280;8375;33.594;-117.718;2023-03-23T06:25:44;100819.84;;;9.30;100.00
16525;BME280;8375;33.594;-117.718;2023-03-23T06:28:12;100818.16;;;9.29;100.00
16525;BME280;8375;33.594;-117.718;2023-03-23T06:30:41;100823.19;;;9.17;100.00
16525;BME280;8375;33.594;-117.718;2023-03-23T06:33:10;100821.63;;;9.15;100.00
16525;BME280;8375;33.594;-117.718;2023-03-23T06:35:40;100821.63;;;9.15;100.00
16525;BME280;8375;33.594;-117.718;2023-03-23T06:38:09;100818.56;;;9.08;100.00
16525;BME280;8375;33.594;-117.718;2023-03-23T06:40:38;100826.06;;;9.13;100.00
16525;BME280;8375;33.594;-117.718;2023-03-23T06:43:08;100826.88;;;9.13;100.00
16525;BME280;8375;33.594;-117.718;2023-03-23T06:45:36;100825.88;;;9.16;100.00
16525;BME280;8375;33.594;-117.718;2023-03-23T06:48:05;100826.88;;;8.99;100.00
16525;BME280;8375;33.594;-117.718;2023-03-23T06:50:34;100825.31;;;8.96;100.00
16525;BME280;8375;33.594;-117.718;2023-03-23T06:53:05;100828.72;;;8.97;100.00
16525;BME280;8375;33.594;-117.718;2023-03-23T06:55:33;100822.94;;;8.93;100.00
16525;BME280;8375;33.594;-117.718;2023-03-23T06:58:03;100823.94;;;8.90;100.00
16525;BME280;8375;33.594;-117.718;2023-03-23T07:00:32;100820.69;;;8.87;100.00
16525;BME280;8375;33.594;-117.718;2023-03-23T07:03:01;100822.81;;;8.80;100.00
16525;BME280;8375;33.594;-117.718;2023-03-23T07:05:30;100819.47;;;8.78;100.00
16525;BME280;8375;33.594;-117.718;2023-03-23T07:08:00;100823.00;;;8.77;100.00
16525;BME280;8375;33.594;-117.718;2023-03-23T07:10:31;100828.34;;;8.74;100.00
16525;BME280;8375;33.594;-117.718;2023-03-23T07:12:59;100815.78;;;8.68;100.00
16525;BME280;8375;33.594;-117.718;2023-03-23T07:15:28;100822.91;;;8.64;100.00
16525;BME280;8375;33.594;-117.718;2023-03-23T07:17:57;100820.38;;;8.62;100.00
16525;BME280;8375;33.594;-117.718;2023-03-23T07:20:26;100817.22;;;8.57;100.00
16525;BME280;8375;33.594;-117.718;2023-03-23T07:22:54;100821.59;;;8.57;100.00
16525;BME280;8375;33.594;-117.718;2023-03-23T07:25:23;100820.09;;;8.53;100.00
16525;BME280;8375;33.594;-117.718;2023-03-23T07:27:55;100826.84;;;8.55;100.00
16525;BME280;8375;33.594;-117.718;2023-03-23T07:30:24;100831.94;;;8.57;100.00
16525;BME280;8375;33.594;-117.718;2023-03-23T07:32:53;100836.28;;;8.56;100.00
16525;BME280;8375;33.594;-117.718;2023-03-23T07:35:22;100829.44;;;8.55;100.00
16525;BME280;8375;33.594;-117.718;2023-03-23T07:37:51;100834.97;;;8.49;100.00
16525;BME280;8375;33.594;-117.718;2023-03-23T07:40:20;100839.38;;;8.47;100.00
16525;BME280;8375;33.594;-117.718;2023-03-23T07:42:55;100831.78;;;8.44;100.00
16525;BME280;8375;33.594;-117.718;2023-03-23T07:45:24;100839.66;;;8.42;100.00
16525;BME280;8375;33.594;-117.718;2023-03-23T07:47:53;100842.47;;;8.37;100.00
16525;BME280;8375;33.594;-117.718;2023-03-23T07:50:21;100848.94;;;8.30;100.00
16525;BME280;8375;33.594;-117.718;2023-03-23T07:52:50;100848.19;;;8.28;100.00
16525;BME280;8375;33.594;-117.718;2023-03-23T07:55:19;100850.13;;;8.25;100.00
16525;BME280;8375;33.594;-117.718;2023-03-23T07:57:48;100847.72;;;8.21;100.00
16525;BME280;8375;33.594;-117.718;2023-03-23T08:00:20;100841.78;;;8.19;100.00
16525;BME280;8375;33.594;-117.718;2023-03-23T08:02:51;100841.63;;;8.22;100.00
16525;BME280;8375;33.594;-117.718;2023-03-23T08:05:20;100847.94;;;8.17;100.00
16525;BME280;8375;33.594;-117.718;2023-03-23T08:07:48;100842.38;;;8.08;100.00
16525;BME280;8375;33.594;-117.718;2023-03-23T08:10:18;100841.56;;;8.08;100.00
16525;BME280;8375;33.594;-117.718;2023-03-23T08:12:51;100837.03;;;8.12;100.00
16525;BME280;8375;33.594;-117.718;2023-03-23T08:15:23;100840.38;;;8.14;100.00
16525;BME280;8375;33.594;-117.718;2023-03-23T08:17:52;100845.72;;;8.11;100.00
16525;BME280;8375;33.594;-117.718;2023-03-23T08:20:22;100844.22;;;8.06;100.00
16525;BME280;8375;33.594;-117.718;2023-03-23T08:22:53;100847.06;;;8.02;100.00
16525;BME280;8375;33.594;-117.718;2023-03-23T08:25:22;100847.31;;;7.97;100.00
16525;BME280;8375;33.594;-117.718;2023-03-23T08:27:52;100854.50;;;7.92;100.00
16525;BME280;8375;33.594;-117.718;2023-03-23T08:30:23;100851.16;;;7.90;100.00
16525;BME280;8375;33.594;-117.718;2023-03-23T08:32:52;100845.25;;;7.88;100.00
16525;BME280;8375;33.594;-117.718;2023-03-23T08:35:22;100850.41;;;7.88;100.00
16525;BME280;8375;33.594;-117.718;2023-03-23T08:37:51;100854.09;;;7.84;100.00
16525;BME280;8375;33.594;-117.718;2023-03-23T08:40:22;100854.16;;;7.82;100.00
16525;BME280;8375;33.594;-117.718;2023-03-23T08:42:51;100853.34;;;7.82;100.00
16525;BME280;8375;33.594;-117.718;2023-03-23T08:45:24;100857.06;;;7.76;100.00
16525;BME280;8375;33.594;-117.718;2023-03-23T08:47:54;100853.16;;;7.69;100.00
16525;BME280;8375;33.594;-117.718;2023-03-23T08:50:25;100855.56;;;7.72;100.00
16525;BME280;8375;33.594;-117.718;2023-03-23T08:52:54;100853.41;;;7.64;100.00
16525;BME280;8375;33.594;-117.718;2023-03-23T08:55:22;100856.75;;;7.66;100.00
16525;BME280;8375;33.594;-117.718;2023-03-23T08:57:53;100851.59;;;7.66;100.00
16525;BME280;8375;33.594;-117.718;2023-03-23T09:00:24;100856.75;;;7.66;100.00
16525;BME280;8375;33.594;-117.718;2023-03-23T09:02:54;100857.00;;;7.61;100.00
16525;BME280;8375;33.594;-117.718;2023-03-23T09:05:25;100856.91;;;7.63;100.00
16525;BME280;8375;33.594;-117.718;2023-03-23T09:07:55;100858.91;;;7.74;100.00
16525;BME280;8375;33.594;-117.718;2023-03-23T09:10:26;100857.91;;;7.76;100.00
16525;BME280;8375;33.594;-117.718;2023-03-23T09:12:56;100855.41;;;7.75;100.00
16525;BME280;8375;33.594;-117.718;2023-03-23T09:15:27;100861.59;;;7.72;100.00
16525;BME280;8375;33.594;-117.718;2023-03-23T09:17:55;100859.25;;;7.84;100.00
16525;BME280;8375;33.594;-117.718;2023-03-23T09:20:26;100854.72;;;7.87;100.00
16525;BME280;8375;33.594;-117.718;2023-03-23T09:22:56;100854.84;;;7.86;100.00
16525;BME280;8375;33.594;-117.718;2023-03-23T09:25:26;100861.66;;;7.87;100.00
16525;BME280;8375;33.594;-117.718;2023-03-23T09:27:56;100851.97;;;7.90;100.00
16525;BME280;8375;33.594;-117.718;2023-03-23T09:30:28;100858.75;;;7.93;100.00
16525;BME280;8375;33.594;-117.718;2023-03-23T09:32:57;100848.41;;;7.93;100.00
16525;BME280;8375;33.594;-117.718;2023-03-23T09:35:29;100851.06;;;7.91;100.00
16525;BME280;8375;33.594;-117.718;2023-03-23T09:37:58;100844.41;;;7.87;100.00
16525;BME280;8375;33.594;-117.718;2023-03-23T09:40:31;100844.50;;;7.86;100.00
16525;BME280;8375;33.594;-117.718;2023-03-23T09:45:58;100836.72;;;8.02;100.00
16525;BME280;8375;33.594;-117.718;2023-03-23T09:48:40;100835.53;;;8.07;100.00
16525;BME280;8375;33.594;-117.718;2023-03-23T09:51:17;100839.03;;;8.06;100.00
16525;BME280;8375;33.594;-117.718;2023-03-23T09:53:50;100835.66;;;8.06;100.00
16525;BME280;8375;33.594;-117.718;2023-03-23T09:56:20;100827.88;;;8.06;100.00
16525;BME280;8375;33.594;-117.718;2023-03-23T09:58:54;100831.22;;;8.08;100.00
16525;BME280;8375;33.594;-117.718;2023-03-23T10:01:29;100828.69;;;8.06;100.00
16525;BME280;8375;33.594;-117.718;2023-03-23T10:04:05;100822.53;;;8.09;100.00
16525;BME280;8375;33.594;-117.718;2023-03-23T10:06:35;100826.50;;;8.15;100.00
16525;BME280;8375;33.594;-117.718;2023-03-23T10:09:05;100824.94;;;8.12;100.00
16525;BME280;8375;33.594;-117.718;2023-03-23T10:11:43;100824.56;;;8.04;100.00
16525;BME280;8375;33.594;-117.718;2023-03-23T10:14:22;100818.59;;;8.18;100.00
16525;BME280;8375;33.594;-117.718;2023-03-23T10:17:02;100814.69;;;8.11;100.00
16525;BME280;8375;33.594;-117.718;2023-03-23T10:19:41;100829.25;;;8.28;100.00
16525;BME280;8375;33.594;-117.718;2023-03-23T10:22:16;100817.91;;;8.45;100.00
16525;BME280;8375;33.594;-117.718;2023-03-23T10:24:51;100814.19;;;8.50;100.00
16525;BME280;8375;33.594;-117.718;2023-03-23T10:27:26;100817.91;;;8.45;100.00
16525;BME280;8375;33.594;-117.718;2023-03-23T10:29:58;100822.78;;;8.51;100.00
16525;BME280;8375;33.594;-117.718;2023-03-23T10:32:53;100822.22;;;8.60;100.00
16525;BME280;8375;33.594;-117.718;2023-03-23T10:35:26;100821.69;;;8.70;100.00
16525;BME280;8375;33.594;-117.718;2023-03-23T10:38:00;100817.00;;;8.76;100.00
16525;BME280;8375;33.594;-117.718;2023-03-23T10:40:31;100816.69;;;8.66;100.00
16525;BME280;8375;33.594;-117.718;2023-03-23T10:43:02;100822.06;;;8.63;100.00
16525;BME280;8375;33.594;-117.718;2023-03-23T10:45:31;100822.78;;;8.65;100.00
16525;BME280;8375;33.594;-117.718;2023-03-23T10:48:07;100818.34;;;8.53;100.00
16525;BME280;8375;33.594;-117.718;2023-03-23T10:50:38;100821.88;;;8.66;100.00
16525;BME280;8375;33.594;-117.718;2023-03-23T10:53:15;100816.25;;;8.74;100.00
16525;BME280;8375;33.594;-117.718;2023-03-23T10:55:44;100818.66;;;8.77;100.00
16525;BME280;8375;33.594;-117.718;2023-03-23T10:58:23;100817.63;;;8.80;100.00
16525;BME280;8375;33.594;-117.718;2023-03-23T11:00:52;100814.84;;;8.69;100.00
16525;BME280;8375;33.594;-117.718;2023-03-23T11:03:43;100817.91;;;8.75;100.00
16525;BME280;8375;33.594;-117.718;2023-03-23T11:06:20;100821.16;;;8.79;100.00
16525;BME280;8375;33.594;-117.718;2023-03-23T11:08:54;100818.09;;;8.72;100.00
16525;BME280;8375;33.594;-117.718;2023-03-23T11:11:26;100819.22;;;8.68;100.00
16525;BME280;8375;33.594;-117.718;2023-03-23T11:14:00;100822.59;;;8.54;100.00
16525;BME280;8375;33.594;-117.718;2023-03-23T11:16:30;100821.66;;;8.55;100.00
16525;BME280;8375;33.594;-117.718;2023-03-23T11:19:12;100820.94;;;8.68;100.00
16525;BME280;8375;33.594;-117.718;2023-03-23T11:21:46;100824.34;;;8.54;100.00
16525;BME280;8375;33.594;-117.718;2023-03-23T11:24:15;100829.19;;;8.44;100.00
16525;BME280;8375;33.594;-117.718;2023-03-23T11:26:45;100828.25;;;8.45;100.00
16525;BME280;8375;33.594;-117.718;2023-03-23T11:29:16;100829.25;;;8.58;100.00
16525;BME280;8375;33.594;-117.718;2023-03-23T11:31:48;100827.75;;;8.54;100.00
16525;BME280;8375;33.594;-117.718;2023-03-23T11:34:21;100822.91;;;8.64;100.00
16525;BME280;8375;33.594;-117.718;2023-03-23T11:36:53;100827.72;;;8.70;100.00
16525;BME280;8375;33.594;-117.718;2023-03-23T11:39:25;100822.16;;;8.62;100.00
16525;BME280;8375;33.594;-117.718;2023-03-23T11:41:55;100828.50;;;8.56;100.00
16525;BME280;8375;33.594;-117.718;2023-03-23T11:44:32;100826.94;;;8.54;100.00
16525;BME280;8375;33.594;-117.718;2023-03-23T11:47:04;100832.63;;;8.44;100.00
16525;BME280;8375;33.594;-117.718;2023-03-23T11:49:47;100827.75;;;8.54;100.00
16525;BME280;8375;33.594;-117.718;2023-03-23T11:52:36;100831.44;;;8.50;100.00
16525;BME280;8375;33.594;-117.718;2023-03-23T11:55:13;100833.56;;;8.27;100.00
16525;BME280;8375;33.594;-117.718;2023-03-23T11:57:43;100834.84;;;8.20;100.00
16525;BME280;8375;33.594;-117.718;2023-03-23T12:00:15;100841.69;;;8.21;100.00
16525;BME280;8375;33.594;-117.718;2023-03-23T12:02:50;100840.56;;;8.41;100.00
16525;BME280;8375;33.594;-117.718;2023-03-23T12:05:36;100835.28;;;8.59;100.00
16525;BME280;8375;33.594;-117.718;2023-03-23T12:08:23;100839.16;;;8.66;100.00
16525;BME280;8375;33.594;-117.718;2023-03-23T12:11:00;100851.06;;;8.54;100.00
16525;BME280;8375;33.594;-117.718;2023-03-23T12:13:47;100849.81;;;8.45;100.00
16525;BME280;8375;33.594;-117.718;2023-03-23T12:16:35;100857.25;;;8.51;100.00
16525;BME280;8375;33.594;-117.718;2023-03-23T12:19:12;100857.28;;;8.66;100.00
16525;BME280;8375;33.594;-117.718;2023-03-23T12:21:55;100860.44;;;8.71;100.00
16525;BME280;8375;33.594;-117.718;2023-03-23T12:24:39;100865.06;;;8.66;100.00
16525;BME280;8375;33.594;-117.718;2023-03-23T12:27:14;100865.31;;;8.61;100.00
16525;BME280;8375;33.594;-117.718;2023-03-23T12:29:55;100862.31;;;8.53;100.00
16525;BME280;8375;33.594;-117.718;2023-03-23T12:32:42;100859.34;;;8.75;100.00
16525;BME280;8375;33.594;-117.718;2023-03-23T12:35:26;100864.91;;;8.84;100.00
16525;BME280;8375;33.594;-117.718;2023-03-23T12:38:08;100867.94;;;8.90;100.00
16525;BME280;8375;33.594;-117.718;2023-03-23T12:40:55;100876.84;;;9.01;100.00
16525;BME280;8375;33.594;-117.718;2023-03-23T12:43:31;100874.59;;;8.94;100.00
16525;BME280;8375;33.594;-117.718;2023-03-23T12:46:14;100875.91;;;9.02;100.00
16525;BME280;8375;33.594;-117.718;2023-03-23T12:48:51;100874.53;;;9.10;100.00
16525;BME280;8375;33.594;-117.718;2023-03-23T12:51:25;100875.19;;;9.14;100.00
16525;BME280;8375;33.594;-117.718;2023-03-23T12:54:09;100878.13;;;9.22;100.00
16525;BME280;8375;33.594;-117.718;2023-03-23T12:56:44;100881.84;;;9.18;100.00
16525;BME280;8375;33.594;-117.718;2023-03-23T12:59:19;100884.72;;;9.14;100.00